createdAt,value
2023-03-23T06:02:58.804Z,91.34
2023-03-23T06:05:36.807Z,91.75
2023-03-23T06:08:08.487Z,91.37
2023-03-23T06:10:44.865Z,91.92
2023-03-23T06:13:15.508Z,91.99
2023-03-23T06:15:51.842Z,92.33
2023-03-23T06:18:24.809Z,92.26
2023-03-23T06:21:01.989Z,93.07
2023-03-23T06:23:32.335Z,93.43
2023-03-23T06:26:12.910Z,94.01
2023-03-23T06:28:42.971Z,93.62
2023-03-23T06:31:19.902Z,93.89
2023-03-23T06:33:58.856Z,94.10
2023-03-23T06:36:29.733Z,93.73
2023-03-23T06:39:06.984Z,94.15
2023-03-23T06:41:37.841Z,94.26
2023-03-23T06:44:15.897Z,94.06
2023-03-23T06:46:46.760Z,94.40
2023-03-23T06:49:25.934Z,94.75
2023-03-23T06:52:03.936Z,94.41
2023-03-23T06:54:34.150Z,94.28
2023-03-23T06:57:10.944Z,94.44
2023-03-23T06:59:41.200Z,93.75
2023-03-23T07:02:20.140Z,94.54
2023-03-23T07:04:52.903Z,93.83
2023-03-23T07:07:29.941Z,94.05
2023-03-23T07:10:00.270Z,93.77
2023-03-23T07:12:36.929Z,94.18
2023-03-23T07:15:09.190Z,94.59
2023-03-23T07:17:45.928Z,94.05
2023-03-23T07:20:19.151Z,94.33
2023-03-23T07:22:56.034Z,94.73
2023-03-23T07:25:32.970Z,94.42
2023-03-23T07:28:03.572Z,93.55
2023-03-23T07:30:40.961Z,93.34
2023-03-23T07:33:13.266Z,93.81
2023-03-23T07:35:52.976Z,93.92
2023-03-23T07:38:23.729Z,93.64
2023-03-23T07:41:00.981Z,94.01
2023-03-23T07:43:31.543Z,94.09
2023-03-23T07:46:07.962Z,94.20
2023-03-23T07:48:38.963Z,93.57
2023-03-23T07:51:17.995Z,93.45
2023-03-23T07:53:48.480Z,93.96
2023-03-23T07:56:26.966Z,94.04
2023-03-23T07:59:04.003Z,93.22
2023-03-23T08:01:34.239Z,93.80
2023-03-23T08:04:10.996Z,93.48
2023-03-23T08:06:43.826Z,93.37
2023-03-23T08:09:21.045Z,92.70
2023-03-23T08:11:51.719Z,92.81
2023-03-23T08:14:28.046Z,92.66
2023-03-23T08:16:59.878Z,91.70
2023-03-23T08:19:37.111Z,91.53
2023-03-23T08:22:17.033Z,91.16
2023-03-23T08:24:47.228Z,92.18
2023-03-23T08:27:24.082Z,91.32
2023-03-23T08:30:01.043Z,91.03
2023-03-23T08:32:31.186Z,89.68
2023-03-23T08:35:11.004Z,90.07
2023-03-23T08:37:45.258Z,89.45
2023-03-23T08:40:27.092Z,88.60
2023-03-23T08:43:04.024Z,88.78
2023-03-23T08:45:34.639Z,86.59
2023-03-23T08:48:11.023Z,84.46
2023-03-23T08:50:49.082Z,82.33
2023-03-23T08:53:22.381Z,80.34
2023-03-23T08:55:59.151Z,79.04
2023-03-23T08:58:32.468Z,76.81
2023-03-23T09:01:09.139Z,75.40
2023-03-23T09:03:48.131Z,72.75
2023-03-23T09:06:18.516Z,72.79
2023-03-23T09:08:58.061Z,69.05
2023-03-23T09:11:35.068Z,70.22
2023-03-23T09:14:13.114Z,69.48
2023-03-23T09:16:43.936Z,67.52
2023-03-23T09:19:21.206Z,67.77
2023-03-23T09:21:58.077Z,67.38
2023-03-23T09:24:31.298Z,64.31
2023-03-23T09:27:09.110Z,65.09
2023-03-23T09:29:46.086Z,63.63
2023-03-23T09:32:23.143Z,63.79
2023-03-23T09:35:03.225Z,63.23
2023-03-23T09:37:42.139Z,61.43
2023-03-23T09:40:20.856Z,59.84
2023-03-23T09:43:16.120Z,58.73
2023-03-23T09:45:59.814Z,58.81
2023-03-23T09:49:00.165Z,60.59
2023-03-23T09:51:44.298Z,62.60
2023-03-23T09:54:30.241Z,61.38
2023-03-23T09:57:04.930Z,60.74
2023-03-23T09:59:49.417Z,60.53
2023-03-23T10:02:35.997Z,59.79
2023-03-23T10:05:36.113Z,60.27
2023-03-23T10:08:21.179Z,57.17
2023-03-23T10:11:08.161Z,58.18
2023-03-23T10:14:08.760Z,57.51
2023-03-23T10:16:51.191Z,54.78
2023-03-23T10:19:31.939Z,54.47
2023-03-23T10:22:16.197Z,55.05
2023-03-23T10:24:53.818Z,53.21
2023-03-23T10:27:40.276Z,53.22
2023-03-23T10:30:24.019Z,51.93
2023-03-23T10:33:06.469Z,52.25
2023-03-23T10:35:44.364Z,52.53
2023-03-23T10:38:26.240Z,52.99
2023-03-23T10:41:06.399Z,51.90
2023-03-23T10:43:43.298Z,52.21
2023-03-23T10:46:34.723Z,51.18
2023-03-23T10:49:19.251Z,51.58
2023-03-23T10:52:03.603Z,51.24
2023-03-23T10:54:51.219Z,51.19
2023-03-23T10:57:29.780Z,51.69
2023-03-23T11:00:16.281Z,50.51
2023-03-23T11:03:07.229Z,50.27
2023-03-23T11:05:42.214Z,49.18
2023-03-23T11:08:24.854Z,47.80
2023-03-23T11:10:58.822Z,48.73
2023-03-23T11:13:42.264Z,48.42
2023-03-23T11:16:13.567Z,47.48
2023-03-23T11:18:54.238Z,48.02
2023-03-23T11:21:27.233Z,48.42
2023-03-23T11:24:10.385Z,47.66
2023-03-23T11:26:50.287Z,48.78
2023-03-23T11:29:36.291Z,47.91
2023-03-23T11:32:17.281Z,48.02
2023-03-23T11:34:55.525Z,48.74
2023-03-23T11:37:40.328Z,49.45
2023-03-23T11:40:28.296Z,50.15
2023-03-23T11:43:11.278Z,51.83
2023-03-23T11:45:49.994Z,52.19
2023-03-23T11:48:37.318Z,52.53
2023-03-23T11:51:22.435Z,52.86
2023-03-23T11:54:04.143Z,53.15
2023-03-23T11:56:46.293Z,53.41
2023-03-23T11:59:21.569Z,54.58
2023-03-23T12:02:14.988Z,54.83
2023-03-23T12:05:11.658Z,55.10
2023-03-23T12:08:08.345Z,54.83
2023-03-23T12:14:00.318Z,53.68
2023-03-23T12:16:51.375Z,51.28
2023-03-23T12:19:37.490Z,51.88
2023-03-23T12:22:41.369Z,51.34
2023-03-23T12:25:49.397Z,51.10
2023-03-23T12:28:36.645Z,51.48
2023-03-23T12:31:24.338Z,50.32
2023-03-23T12:34:03.047Z,49.83
2023-03-23T12:36:57.490Z,50.34
2023-03-23T12:39:57.200Z,51.31
2023-03-23T12:42:50.357Z,51.03
2023-03-23T12:45:35.352Z,51.23
2023-03-23T12:48:11.155Z,51.39
2023-03-23T12:50:54.660Z,51.60
2023-03-23T12:53:32.490Z,52.29
2023-03-23T12:56:23.439Z,53.06
2023-03-23T12:59:17.865Z,53.01
2023-03-23T13:01:59.374Z,53.18
2023-03-23T13:04:37.286Z,53.10
2023-03-23T13:07:20.457Z,53.42
2023-03-23T13:10:05.349Z,52.81
2023-03-23T13:12:40.369Z,53.08
2023-03-23T13:15:36.512Z,52.74
2023-03-23T13:18:25.449Z,52.99
2023-03-23T13:21:06.564Z,52.72
2023-03-23T13:23:49.486Z,52.78
2023-03-23T13:26:24.797Z,52.11
2023-03-23T13:29:11.456Z,52.14
2023-03-23T13:31:45.829Z,52.19
2023-03-23T13:34:28.470Z,52.11
2023-03-23T13:37:04.095Z,52.54
2023-03-23T13:39:44.449Z,52.88
2023-03-23T13:42:31.511Z,53.16
2023-03-23T13:45:31.507Z,52.65
2023-03-23T13:48:26.278Z,53.99
2023-03-23T13:51:06.466Z,54.28
2023-03-23T13:53:55.461Z,54.16
2023-03-23T13:56:39.895Z,54.54
2023-03-23T13:59:22.465Z,55.14
